sensor_id;sensor_type;location;lat;lon;timestamp;P1;durP1;ratioP1;P2;durP2;ratioP2
73296;SDS011;61524;50.938;11.396;2023-03-03T00:01:35;69.47;;;20.70;;
73296;SDS011;61524;50.938;11.396;2023-03-03T00:04:00;62.58;;;20.17;;
73296;SDS011;61524;50.938;11.396;2023-03-03T00:06:26;59.55;;;19.63;;
73296;SDS011;61524;50.938;11.396;2023-03-03T00:08:51;55.83;;;20.50;;
73296;SDS011;61524;50.938;11.396;2023-03-03T00:11:16;54.17;;;18.45;;
73296;SDS011;61524;50.938;11.396;2023-03-03T00:13:44;54.55;;;19.02;;
73296;SDS011;61524;50.938;11.396;2023-03-03T00:16:14;58.65;;;17.90;;
73296;SDS011;61524;50.938;11.396;2023-03-03T00:18:41;40.88;;;19.08;;
73296;SDS011;61524;50.938;11.396;2023-03-03T00:21:26;42.92;;;16.48;;
73296;SDS011;61524;50.938;11.396;2023-03-03T00:24:08;42.63;;;15.85;;
73296;SDS011;61524;50.938;11.396;2023-03-03T00:26:35;45.85;;;17.13;;
73296;SDS011;61524;50.938;11.396;2023-03-03T00:29:02;49.03;;;16.40;;
73296;SDS011;61524;50.938;11.396;2023-03-03T00:31:44;51.22;;;20.65;;
73296;SDS011;61524;50.938;11.396;2023-03-03T00:34:25;42.42;;;15.63;;
73296;SDS011;61524;50.938;11.396;2023-03-03T00:36:51;42.63;;;16.98;;
73296;SDS011;61524;50.938;11.396;2023-03-03T00:41:43;47.88;;;15.65;;
73296;SDS011;61524;50.938;11.396;2023-03-03T00:46:43;44.63;;;16.33;;
73296;SDS011;61524;50.938;11.396;2023-03-03T00:49:08;41.93;;;13.07;;
73296;SDS011;61524;50.938;11.396;2023-03-03T00:51:41;56.28;;;17.27;;
73296;SDS011;61524;50.938;11.396;2023-03-03T00:54:07;50.58;;;17.27;;
73296;SDS011;61524;50.938;11.396;2023-03-03T00:56:33;57.13;;;16.30;;
73296;SDS011;61524;50.938;11.396;2023-03-03T00:58:58;43.80;;;13.80;;
73296;SDS011;61524;50.938;11.396;2023-03-03T01:01:23;50.17;;;15.97;;
73296;SDS011;61524;50.938;11.396;2023-03-03T01:03:49;34.13;;;13.13;;
73296;SDS011;61524;50.938;11.396;2023-03-03T01:06:14;48.47;;;15.20;;
73296;SDS011;61524;50.938;11.396;2023-03-03T01:08:40;48.75;;;14.35;;
73296;SDS011;61524;50.938;11.396;2023-03-03T01:11:07;42.35;;;13.93;;
73296;SDS011;61524;50.938;11.396;2023-03-03T01:13:34;45.15;;;15.88;;
73296;SDS011;61524;50.938;11.396;2023-03-03T01:16:00;51.15;;;15.93;;
73296;SDS011;61524;50.938;11.396;2023-03-03T01:18:26;58.35;;;17.38;;
73296;SDS011;61524;50.938;11.396;2023-03-03T01:20:51;40.03;;;16.52;;
73296;SDS011;61524;50.938;11.396;2023-03-03T01:23:17;53.20;;;16.77;;
73296;SDS011;61524;50.938;11.396;2023-03-03T01:25:42;39.45;;;13.50;;
73296;SDS011;61524;50.938;11.396;2023-03-03T01:28:07;57.27;;;15.97;;
73296;SDS011;61524;50.938;11.396;2023-03-03T01:30:33;46.75;;;16.27;;
73296;SDS011;61524;50.938;11.396;2023-03-03T01:32:58;55.00;;;17.27;;
73296;SDS011;61524;50.938;11.396;2023-03-03T01:35:23;55.37;;;17.73;;
73296;SDS011;61524;50.938;11.396;2023-03-03T01:37:49;48.50;;;15.98;;
73296;SDS011;61524;50.938;11.396;2023-03-03T01:40:16;48.42;;;13.77;;
73296;SDS011;61524;50.938;11.396;2023-03-03T01:42:42;47.03;;;16.17;;
73296;SDS011;61524;50.938;11.396;2023-03-03T01:45:15;52.40;;;16.27;;
73296;SDS011;61524;50.938;11.396;2023-03-03T01:47:42;51.05;;;15.65;;
73296;SDS011;61524;50.938;11.396;2023-03-03T01:50:10;51.00;;;16.10;;
73296;SDS011;61524;50.938;11.396;2023-03-03T01:52:37;51.72;;;17.23;;
73296;SDS011;61524;50.938;11.396;2023-03-03T01:55:07;37.25;;;14.05;;
73296;SDS011;61524;50.938;11.396;2023-03-03T01:57:36;39.75;;;12.65;;
73296;SDS011;61524;50.938;11.396;2023-03-03T02:02:28;36.63;;;11.75;;
73296;SDS011;61524;50.938;11.396;2023-03-03T02:04:53;35.63;;;12.18;;
73296;SDS011;61524;50.938;11.396;2023-03-03T02:07:19;24.83;;;8.40;;
73296;SDS011;61524;50.938;11.396;2023-03-03T02:12:31;39.10;;;12.40;;
73296;SDS011;61524;50.938;11.396;2023-03-03T02:14:57;38.97;;;12.50;;
73296;SDS011;61524;50.938;11.396;2023-03-03T02:17:23;41.08;;;12.82;;
73296;SDS011;61524;50.938;11.396;2023-03-03T02:22:16;41.45;;;13.98;;
73296;SDS011;61524;50.938;11.396;2023-03-03T02:24:47;42.40;;;13.55;;
73296;SDS011;61524;50.938;11.396;2023-03-03T02:27:14;40.17;;;13.35;;
73296;SDS011;61524;50.938;11.396;2023-03-03T02:29:40;35.25;;;13.63;;
73296;SDS011;61524;50.938;11.396;2023-03-03T02:32:05;44.97;;;12.33;;
73296;SDS011;61524;50.938;11.396;2023-03-03T02:34:30;35.57;;;12.87;;
73296;SDS011;61524;50.938;11.396;2023-03-03T02:37:07;37.58;;;13.23;;
73296;SDS011;61524;50.938;11.396;2023-03-03T02:39:32;40.60;;;13.82;;
73296;SDS011;61524;50.938;11.396;2023-03-03T02:42:02;39.80;;;13.57;;
73296;SDS011;61524;50.938;11.396;2023-03-03T02:44:31;38.03;;;12.55;;
73296;SDS011;61524;50.938;11.396;2023-03-03T02:46:56;34.33;;;13.60;;
73296;SDS011;61524;50.938;11.396;2023-03-03T02:49:23;31.10;;;10.77;;
73296;SDS011;61524;50.938;11.396;2023-03-03T02:51:49;35.90;;;11.32;;
73296;SDS011;61524;50.938;11.396;2023-03-03T02:54:15;39.33;;;13.75;;
73296;SDS011;61524;50.938;11.396;2023-03-03T02:56:41;36.72;;;13.82;;
73296;SDS011;61524;50.938;11.396;2023-03-03T02:59:06;46.28;;;13.45;;
73296;SDS011;61524;50.938;11.396;2023-03-03T03:01:32;37.72;;;12.15;;
73296;SDS011;61524;50.938;11.396;2023-03-03T03:04:22;41.65;;;14.15;;
73296;SDS011;61524;50.938;11.396;2023-03-03T03:06:46;35.03;;;12.68;;
73296;SDS011;61524;50.938;11.396;2023-03-03T03:09:12;37.70;;;14.00;;
73296;SDS011;61524;50.938;11.396;2023-03-03T03:11:38;33.42;;;11.98;;
73296;SDS011;61524;50.938;11.396;2023-03-03T03:14:05;37.80;;;11.90;;
73296;SDS011;61524;50.938;11.396;2023-03-03T03:16:31;32.50;;;12.45;;
73296;SDS011;61524;50.938;11.396;2023-03-03T03:18:56;36.85;;;13.07;;
73296;SDS011;61524;50.938;11.396;2023-03-03T03:21:22;40.30;;;12.77;;
73296;SDS011;61524;50.938;11.396;2023-03-03T03:23:47;33.70;;;12.10;;
73296;SDS011;61524;50.938;11.396;2023-03-03T03:26:12;33.65;;;11.98;;
73296;SDS011;61524;50.938;11.396;2023-03-03T03:28:38;22.25;;;9.45;;
73296;SDS011;61524;50.938;11.396;2023-03-03T03:31:04;34.88;;;12.52;;
73296;SDS011;61524;50.938;11.396;2023-03-03T03:33:29;35.55;;;12.40;;
73296;SDS011;61524;50.938;11.396;2023-03-03T03:35:55;35.60;;;14.27;;
73296;SDS011;61524;50.938;11.396;2023-03-03T03:38:21;30.75;;;11.30;;
73296;SDS011;61524;50.938;11.396;2023-03-03T03:40:47;30.50;;;11.25;;
73296;SDS011;61524;50.938;11.396;2023-03-03T03:43:12;33.85;;;12.43;;
73296;SDS011;61524;50.938;11.396;2023-03-03T03:45:38;45.27;;;14.97;;
73296;SDS011;61524;50.938;11.396;2023-03-03T03:48:03;38.72;;;13.80;;
73296;SDS011;61524;50.938;11.396;2023-03-03T03:50:28;36.92;;;12.25;;
73296;SDS011;61524;50.938;11.396;2023-03-03T03:52:54;37.05;;;12.98;;
73296;SDS011;61524;50.938;11.396;2023-03-03T03:55:20;40.67;;;14.13;;
73296;SDS011;61524;50.938;11.396;2023-03-03T03:57:46;37.38;;;12.60;;
73296;SDS011;61524;50.938;11.396;2023-03-03T04:00:12;39.47;;;12.77;;
73296;SDS011;61524;50.938;11.396;2023-03-03T04:02:37;43.55;;;11.85;;
73296;SDS011;61524;50.938;11.396;2023-03-03T04:05:02;38.77;;;12.07;;
73296;SDS011;61524;50.938;11.396;2023-03-03T04:07:28;36.50;;;13.77;;
73296;SDS011;61524;50.938;11.396;2023-03-03T04:09:53;39.88;;;12.80;;
73296;SDS011;61524;50.938;11.396;2023-03-03T04:12:19;34.97;;;12.27;;
73296;SDS011;61524;50.938;11.396;2023-03-03T04:14:44;44.13;;;13.50;;
73296;SDS011;61524;50.938;11.396;2023-03-03T04:17:14;32.43;;;11.43;;
73296;SDS011;61524;50.938;11.396;2023-03-03T04:19:40;31.25;;;11.63;;
73296;SDS011;61524;50.938;11.396;2023-03-03T04:22:05;40.73;;;15.17;;
73296;SDS011;61524;50.938;11.396;2023-03-03T04:24:31;40.13;;;13.48;;
73296;SDS011;61524;50.938;11.396;2023-03-03T04:26:56;36.63;;;13.23;;
73296;SDS011;61524;50.938;11.396;2023-03-03T04:29:21;28.93;;;10.27;;
73296;SDS011;61524;50.938;11.396;2023-03-03T04:31:46;33.47;;;11.67;;
73296;SDS011;61524;50.938;11.396;2023-03-03T04:34:12;40.20;;;11.27;;
73296;SDS011;61524;50.938;11.396;2023-03-03T04:36:37;37.70;;;11.23;;
73296;SDS011;61524;50.938;11.396;2023-03-03T04:39:02;34.60;;;12.03;;
73296;SDS011;61524;50.938;11.396;2023-03-03T04:41:27;30.07;;;11.40;;
73296;SDS011;61524;50.938;11.396;2023-03-03T04:43:53;35.72;;;11.70;;
73296;SDS011;61524;50.938;11.396;2023-03-03T04:46:18;32.20;;;10.63;;
73296;SDS011;61524;50.938;11.396;2023-03-03T04:48:43;36.83;;;11.73;;
73296;SDS011;61524;50.938;11.396;2023-03-03T04:51:08;36.83;;;9.87;;
73296;SDS011;61524;50.938;11.396;2023-03-03T04:53:34;27.20;;;11.07;;
73296;SDS011;61524;50.938;11.396;2023-03-03T04:56:00;24.98;;;10.57;;
73296;SDS011;61524;50.938;11.396;2023-03-03T04:58:26;24.35;;;9.93;;
73296;SDS011;61524;50.938;11.396;2023-03-03T05:00:55;30.67;;;10.77;;
73296;SDS011;61524;50.938;11.396;2023-03-03T05:03:20;37.35;;;11.65;;
73296;SDS011;61524;50.938;11.396;2023-03-03T05:05:46;33.40;;;11.75;;
73296;SDS011;61524;50.938;11.396;2023-03-03T05:08:12;34.55;;;11.23;;
73296;SDS011;61524;50.938;11.396;2023-03-03T05:10:37;36.30;;;11.75;;
73296;SDS011;61524;50.938;11.396;2023-03-03T05:13:03;31.65;;;11.65;;
73296;SDS011;61524;50.938;11.396;2023-03-03T05:15:29;35.73;;;10.83;;
73296;SDS011;61524;50.938;11.396;2023-03-03T05:17:54;31.63;;;12.07;;
73296;SDS011;61524;50.938;11.396;2023-03-03T05:20:20;28.00;;;10.23;;
73296;SDS011;61524;50.938;11.396;2023-03-03T05:22:45;25.20;;;10.48;;
73296;SDS011;61524;50.938;11.396;2023-03-03T05:25:11;27.58;;;8.27;;
73296;SDS011;61524;50.938;11.396;2023-03-03T05:27:37;20.08;;;8.30;;
73296;SDS011;61524;50.938;11.396;2023-03-03T05:30:02;28.93;;;9.10;;
73296;SDS011;61524;50.938;11.396;2023-03-03T05:32:28;24.25;;;9.88;;
73296;SDS011;61524;50.938;11.396;2023-03-03T05:34:53;28.97;;;9.67;;
73296;SDS011;61524;50.938;11.396;2023-03-03T05:37:18;21.85;;;8.63;;
73296;SDS011;61524;50.938;11.396;2023-03-03T05:39:43;20.27;;;8.40;;
73296;SDS011;61524;50.938;11.396;2023-03-03T05:42:10;18.38;;;7.35;;
73296;SDS011;61524;50.938;11.396;2023-03-03T05:44:35;26.52;;;8.05;;
73296;SDS011;61524;50.938;11.396;2023-03-03T05:47:01;25.80;;;9.10;;
73296;SDS011;61524;50.938;11.396;2023-03-03T05:49:26;21.33;;;8.50;;
73296;SDS011;61524;50.938;11.396;2023-03-03T05:51:51;24.42;;;9.00;;
73296;SDS011;61524;50.938;11.396;2023-03-03T05:54:17;29.00;;;8.60;;
73296;SDS011;61524;50.938;11.396;2023-03-03T05:56:42;20.70;;;7.77;;
73296;SDS011;61524;50.938;11.396;2023-03-03T05:59:07;31.37;;;9.10;;
73296;SDS011;61524;50.938;11.396;2023-03-03T06:01:32;18.85;;;7.20;;
73296;SDS011;61524;50.938;11.396;2023-03-03T06:03:58;20.73;;;9.67;;
73296;SDS011;61524;50.938;11.396;2023-03-03T06:06:23;20.50;;;7.90;;
73296;SDS011;61524;50.938;11.396;2023-03-03T06:08:48;21.00;;;7.27;;
73296;SDS011;61524;50.938;11.396;2023-03-03T06:11:14;20.53;;;7.40;;
73296;SDS011;61524;50.938;11.396;2023-03-03T06:13:40;22.80;;;8.07;;
73296;SDS011;61524;50.938;11.396;2023-03-03T06:16:06;25.58;;;8.52;;
73296;SDS011;61524;50.938;11.396;2023-03-03T06:18:32;22.92;;;7.57;;
73296;SDS011;61524;50.938;11.396;2023-03-03T06:20:57;18.67;;;6.47;;
73296;SDS011;61524;50.938;11.396;2023-03-03T06:23:22;19.57;;;7.60;;
73296;SDS011;61524;50.938;11.396;2023-03-03T06:25:48;23.77;;;7.43;;
73296;SDS011;61524;50.938;11.396;2023-03-03T06:28:13;22.42;;;7.25;;
73296;SDS011;61524;50.938;11.396;2023-03-03T06:30:39;18.73;;;7.07;;
73296;SDS011;61524;50.938;11.396;2023-03-03T06:33:04;17.00;;;6.60;;
73296;SDS011;61524;50.938;11.396;2023-03-03T06:35:29;18.37;;;6.63;;
73296;SDS011;61524;50.938;11.396;2023-03-03T06:37:55;15.87;;;6.97;;
73296;SDS011;61524;50.938;11.396;2023-03-03T06:40:20;20.00;;;6.43;;
73296;SDS011;61524;50.938;11.396;2023-03-03T06:42:45;14.97;;;6.43;;
73296;SDS011;61524;50.938;11.396;2023-03-03T06:45:11;18.50;;;6.30;;
73296;SDS011;61524;50.938;11.396;2023-03-03T06:47:36;17.98;;;7.05;;
73296;SDS011;61524;50.938;11.396;2023-03-03T06:50:01;16.03;;;6.67;;
73296;SDS011;61524;50.938;11.396;2023-03-03T06:52:27;19.88;;;6.82;;
73296;SDS011;61524;50.938;11.396;2023-03-03T06:54:52;18.45;;;7.05;;
73296;SDS011;61524;50.938;11.396;2023-03-03T06:59:50;20.10;;;6.80;;
73296;SDS011;61524;50.938;11.396;2023-03-03T07:02:16;16.00;;;6.95;;
73296;SDS011;61524;50.938;11.396;2023-03-03T07:04:42;14.40;;;6.82;;
73296;SDS011;61524;50.938;11.396;2023-03-03T07:07:14;16.60;;;5.82;;
73296;SDS011;61524;50.938;11.396;2023-03-03T07:09:40;14.80;;;5.15;;
73296;SDS011;61524;50.938;11.396;2023-03-03T07:12:11;12.43;;;4.95;;
73296;SDS011;61524;50.938;11.396;2023-03-03T07:14:40;12.05;;;5.35;;
73296;SDS011;61524;50.938;11.396;2023-03-03T07:17:09;11.50;;;5.07;;
73296;SDS011;61524;50.938;11.396;2023-03-03T07:19:36;13.25;;;5.18;;
73296;SDS011;61524;50.938;11.396;2023-03-03T07:22:10;14.07;;;5.53;;
73296;SDS011;61524;50.938;11.396;2023-03-03T07:24:36;11.98;;;4.93;;
73296;SDS011;61524;50.938;11.396;2023-03-03T07:27:24;10.03;;;4.60;;
73296;SDS011;61524;50.938;11.396;2023-03-03T07:29:48;8.45;;;4.03;;
73296;SDS011;61524;50.938;11.396;2023-03-03T07:34:43;8.65;;;4.05;;
73296;SDS011;61524;50.938;11.396;2023-03-03T07:37:17;14.40;;;5.88;;
73296;SDS011;61524;50.938;11.396;2023-03-03T07:39:45;9.95;;;4.18;;
73296;SDS011;61524;50.938;11.396;2023-03-03T07:44:52;8.38;;;3.45;;
73296;SDS011;61524;50.938;11.396;2023-03-03T07:47:22;8.90;;;3.72;;
73296;SDS011;61524;50.938;11.396;2023-03-03T07:49:49;12.60;;;4.18;;
73296;SDS011;61524;50.938;11.396;2023-03-03T07:54:45;10.18;;;3.75;;
73296;SDS011;61524;50.938;11.396;2023-03-03T07:59:37;9.02;;;3.90;;
73296;SDS011;61524;50.938;11.396;2023-03-03T08:02:08;8.73;;;3.70;;
73296;SDS011;61524;50.938;11.396;2023-03-03T08:04:43;11.20;;;4.05;;
73296;SDS011;61524;50.938;11.396;2023-03-03T08:07:15;10.02;;;4.47;;
73296;SDS011;61524;50.938;11.396;2023-03-03T08:09:47;9.25;;;3.80;;
73296;SDS011;61524;50.938;11.396;2023-03-03T08:12:55;8.05;;;3.60;;
73296;SDS011;61524;50.938;11.396;2023-03-03T08:15:16;9.95;;;4.85;;
73296;SDS011;61524;50.938;11.396;2023-03-03T08:17:42;7.30;;;2.88;;
73296;SDS011;61524;50.938;11.396;2023-03-03T08:20:54;8.27;;;3.65;;
73296;SDS011;61524;50.938;11.396;2023-03-03T08:22:54;9.38;;;3.15;;
73296;SDS011;61524;50.938;11.396;2023-03-03T08:25:20;8.33;;;3.60;;
73296;SDS011;61524;50.938;11.396;2023-03-03T08:27:45;8.83;;;3.57;;
73296;SDS011;61524;50.938;11.396;2023-03-03T08:30:10;9.57;;;4.13;;
73296;SDS011;61524;50.938;11.396;2023-03-03T08:32:36;6.55;;;3.10;;
73296;SDS011;61524;50.938;11.396;2023-03-03T08:35:01;8.93;;;3.27;;
73296;SDS011;61524;50.938;11.396;2023-03-03T08:37:26;10.00;;;3.83;;
73296;SDS011;61524;50.938;11.396;2023-03-03T08:39:51;10.17;;;3.17;;
73296;SDS011;61524;50.938;11.396;2023-03-03T08:42:17;10.43;;;4.43;;
73296;SDS011;61524;50.938;11.396;2023-03-03T08:44:42;6.70;;;3.30;;
73296;SDS011;61524;50.938;11.396;2023-03-03T08:47:07;7.50;;;3.75;;
73296;SDS011;61524;50.938;11.396;2023-03-03T08:49:33;8.60;;;3.53;;
73296;SDS011;61524;50.938;11.396;2023-03-03T08:51:58;6.37;;;3.47;;
73296;SDS011;61524;50.938;11.396;2023-03-03T08:54:24;9.77;;;3.65;;
73296;SDS011;61524;50.938;11.396;2023-03-03T08:56:50;8.45;;;3.22;;
73296;SDS011;61524;50.938;11.396;2023-03-03T08:59:15;7.22;;;3.22;;
73296;SDS011;61524;50.938;11.396;2023-03-03T09:01:41;6.55;;;3.20;;
73296;SDS011;61524;50.938;11.396;2023-03-03T09:06:33;7.20;;;3.03;;
73296;SDS011;61524;50.938;11.396;2023-03-03T09:08:59;7.00;;;3.37;;
73296;SDS011;61524;50.938;11.396;2023-03-03T09:11:24;7.40;;;3.30;;
73296;SDS011;61524;50.938;11.396;2023-03-03T09:13:53;7.20;;;2.88;;
73296;SDS011;61524;50.938;11.396;2023-03-03T09:16:19;8.10;;;3.70;;
73296;SDS011;61524;50.938;11.396;2023-03-03T09:18:46;7.78;;;3.45;;
73296;SDS011;61524;50.938;11.396;2023-03-03T09:21:15;6.73;;;2.93;;
73296;SDS011;61524;50.938;11.396;2023-03-03T09:23:44;6.93;;;3.17;;
73296;SDS011;61524;50.938;11.396;2023-03-03T09:28:38;27.53;;;11.27;;
73296;SDS011;61524;50.938;11.396;2023-03-03T09:31:05;10.70;;;4.57;;
73296;SDS011;61524;50.938;11.396;2023-03-03T09:33:42;9.68;;;3.42;;
73296;SDS011;61524;50.938;11.396;2023-03-03T09:38:43;7.05;;;3.80;;
73296;SDS011;61524;50.938;11.396;2023-03-03T09:48:55;7.15;;;3.22;;
73296;SDS011;61524;50.938;11.396;2023-03-03T10:22:19;7.60;;;3.35;;
73296;SDS011;61524;50.938;11.396;2023-03-03T10:30:16;7.68;;;3.15;;
73296;SDS011;61524;50.938;11.396;2023-03-03T10:32:48;6.80;;;3.25;;
73296;SDS011;61524;50.938;11.396;2023-03-03T10:40:24;8.55;;;3.35;;
73296;SDS011;61524;50.938;11.396;2023-03-03T10:50:13;6.68;;;2.92;;
73296;SDS011;61524;50.938;11.396;2023-03-03T10:52:46;8.27;;;3.45;;
73296;SDS011;61524;50.938;11.396;2023-03-03T11:03:49;8.60;;;3.10;;
73296;SDS011;61524;50.938;11.396;2023-03-03T11:05:58;8.50;;;3.88;;
73296;SDS011;61524;50.938;11.396;2023-03-03T11:13:40;7.97;;;3.35;;
73296;SDS011;61524;50.938;11.396;2023-03-03T11:19:04;7.35;;;3.33;;
73296;SDS011;61524;50.938;11.396;2023-03-03T11:22:38;7.10;;;2.92;;
73296;SDS011;61524;50.938;11.396;2023-03-03T11:26:58;8.67;;;3.70;;
73296;SDS011;61524;50.938;11.396;2023-03-03T11:40:26;7.10;;;3.53;;
73296;SDS011;61524;50.938;11.396;2023-03-03T11:45:19;6.20;;;2.95;;
73296;SDS011;61524;50.938;11.396;2023-03-03T11:55:32;10.07;;;4.13;;
73296;SDS011;61524;50.938;11.396;2023-03-03T11:58:10;7.57;;;3.47;;
73296;SDS011;61524;50.938;11.396;2023-03-03T12:03:10;8.98;;;3.75;;
73296;SDS011;61524;50.938;11.396;2023-03-03T12:08:31;5.50;;;2.90;;
73296;SDS011;61524;50.938;11.396;2023-03-03T12:13:52;7.32;;;3.63;;
73296;SDS011;61524;50.938;11.396;2023-03-03T12:16:32;7.57;;;3.30;;
73296;SDS011;61524;50.938;11.396;2023-03-03T12:21:42;11.13;;;4.43;;
73296;SDS011;61524;50.938;11.396;2023-03-03T12:31:53;11.57;;;4.53;;
73296;SDS011;61524;50.938;11.396;2023-03-03T12:37:20;13.85;;;5.05;;
73296;SDS011;61524;50.938;11.396;2023-03-03T12:45:04;8.10;;;3.53;;
73296;SDS011;61524;50.938;11.396;2023-03-03T12:47:38;5.85;;;2.65;;
73296;SDS011;61524;50.938;11.396;2023-03-03T12:55:13;8.83;;;3.57;;
73296;SDS011;61524;50.938;11.396;2023-03-03T13:05:26;5.35;;;2.80;;
73296;SDS011;61524;50.938;11.396;2023-03-03T13:10:30;6.65;;;3.47;;
73296;SDS011;61524;50.938;11.396;2023-03-03T13:12:58;7.85;;;3.58;;
73296;SDS011;61524;50.938;11.396;2023-03-03T13:15:27;8.18;;;4.13;;
73296;SDS011;61524;50.938;11.396;2023-03-03T13:20:24;7.63;;;3.38;;
73296;SDS011;61524;50.938;11.396;2023-03-03T13:23:03;9.23;;;4.32;;
73296;SDS011;61524;50.938;11.396;2023-03-03T13:27:59;8.07;;;3.73;;
73296;SDS011;61524;50.938;11.396;2023-03-03T13:30:26;7.95;;;3.08;;
73296;SDS011;61524;50.938;11.396;2023-03-03T13:36:02;6.32;;;2.88;;
73296;SDS011;61524;50.938;11.396;2023-03-03T13:38:30;8.52;;;3.25;;
73296;SDS011;61524;50.938;11.396;2023-03-03T13:43:29;7.20;;;3.13;;
73296;SDS011;61524;50.938;11.396;2023-03-03T13:48:47;7.57;;;3.58;;
73296;SDS011;61524;50.938;11.396;2023-03-03T13:56:34;6.25;;;2.85;;
73296;SDS011;61524;50.938;11.396;2023-03-03T13:59:02;9.10;;;3.80;;
73296;SDS011;61524;50.938;11.396;2023-03-03T14:01:40;8.25;;;3.33;;
73296;SDS011;61524;50.938;11.396;2023-03-03T14:06:42;6.93;;;3.40;;
73296;SDS011;61524;50.938;11.396;2023-03-03T14:16:50;8.98;;;4.00;;
73296;SDS011;61524;50.938;11.396;2023-03-03T14:19:17;7.03;;;3.80;;
73296;SDS011;61524;50.938;11.396;2023-03-03T14:22:11;7.28;;;3.60;;
73296;SDS011;61524;50.938;11.396;2023-03-03T14:26:57;9.15;;;3.47;;
73296;SDS011;61524;50.938;11.396;2023-03-03T14:31:51;8.73;;;3.85;;
73296;SDS011;61524;50.938;11.396;2023-03-03T14:36:49;7.43;;;3.60;;
73296;SDS011;61524;50.938;11.396;2023-03-03T14:39:29;8.40;;;3.83;;
73296;SDS011;61524;50.938;11.396;2023-03-03T14:41:56;7.45;;;3.42;;
73296;SDS011;61524;50.938;11.396;2023-03-03T14:45:12;8.63;;;4.20;;
73296;SDS011;61524;50.938;11.396;2023-03-03T14:49:34;6.77;;;3.57;;
73296;SDS011;61524;50.938;11.396;2023-03-03T14:52:47;7.85;;;3.30;;
73296;SDS011;61524;50.938;11.396;2023-03-03T14:54:49;8.25;;;3.30;;
73296;SDS011;61524;50.938;11.396;2023-03-03T14:57:35;8.40;;;3.85;;
73296;SDS011;61524;50.938;11.396;2023-03-03T15:00:25;8.48;;;3.28;;
73296;SDS011;61524;50.938;11.396;2023-03-03T15:05:28;8.93;;;3.42;;
73296;SDS011;61524;50.938;11.396;2023-03-03T15:07:55;7.47;;;3.53;;
73296;SDS011;61524;50.938;11.396;2023-03-03T15:12:52;8.27;;;3.97;;
73296;SDS011;61524;50.938;11.396;2023-03-03T15:15:19;6.97;;;3.33;;
73296;SDS011;61524;50.938;11.396;2023-03-03T15:30:42;8.35;;;3.80;;
73296;SDS011;61524;50.938;11.396;2023-03-03T15:41:10;8.87;;;3.87;;
73296;SDS011;61524;50.938;11.396;2023-03-03T15:53:51;8.20;;;3.60;;
73296;SDS011;61524;50.938;11.396;2023-03-03T15:56:19;10.27;;;3.58;;
73296;SDS011;61524;50.938;11.396;2023-03-03T15:58:52;7.78;;;3.72;;
73296;SDS011;61524;50.938;11.396;2023-03-03T16:03:52;10.77;;;3.93;;
73296;SDS011;61524;50.938;11.396;2023-03-03T16:06:23;7.03;;;3.63;;
73296;SDS011;61524;50.938;11.396;2023-03-03T16:14:01;7.90;;;3.25;;
73296;SDS011;61524;50.938;11.396;2023-03-03T16:19:24;8.43;;;3.92;;
73296;SDS011;61524;50.938;11.396;2023-03-03T16:32:00;8.30;;;3.83;;
73296;SDS011;61524;50.938;11.396;2023-03-03T16:37:11;7.60;;;3.65;;
73296;SDS011;61524;50.938;11.396;2023-03-03T16:47:26;9.65;;;4.68;;
73296;SDS011;61524;50.938;11.396;2023-03-03T16:53:04;7.53;;;3.25;;
73296;SDS011;61524;50.938;11.396;2023-03-03T16:55:27;8.75;;;4.10;;
73296;SDS011;61524;50.938;11.396;2023-03-03T17:00:22;6.63;;;3.70;;
73296;SDS011;61524;50.938;11.396;2023-03-03T17:07:51;8.73;;;3.67;;
73296;SDS011;61524;50.938;11.396;2023-03-03T17:10:24;10.38;;;4.63;;
73296;SDS011;61524;50.938;11.396;2023-03-03T17:20:50;9.73;;;3.53;;
73296;SDS011;61524;50.938;11.396;2023-03-03T17:26:12;7.60;;;3.78;;
73296;SDS011;61524;50.938;11.396;2023-03-03T17:28:42;6.03;;;3.35;;
73296;SDS011;61524;50.938;11.396;2023-03-03T17:33:47;7.38;;;3.50;;
73296;SDS011;61524;50.938;11.396;2023-03-03T17:41:48;8.45;;;3.92;;
73296;SDS011;61524;50.938;11.396;2023-03-03T17:44:36;10.85;;;4.63;;
73296;SDS011;61524;50.938;11.396;2023-03-03T17:47:09;8.40;;;3.83;;
73296;SDS011;61524;50.938;11.396;2023-03-03T17:57:46;13.10;;;7.35;;
73296;SDS011;61524;50.938;11.396;2023-03-03T18:00:30;10.52;;;5.32;;
73296;SDS011;61524;50.938;11.396;2023-03-03T18:08:01;10.60;;;5.03;;
73296;SDS011;61524;50.938;11.396;2023-03-03T18:10:39;9.05;;;4.15;;
73296;SDS011;61524;50.938;11.396;2023-03-03T18:13:22;9.75;;;3.72;;
73296;SDS011;61524;50.938;11.396;2023-03-03T18:28:50;11.15;;;5.38;;
73296;SDS011;61524;50.938;11.396;2023-03-03T18:31:24;10.95;;;4.95;;
73296;SDS011;61524;50.938;11.396;2023-03-03T18:38:55;11.10;;;5.30;;
73296;SDS011;61524;50.938;11.396;2023-03-03T18:41:24;16.52;;;7.75;;
73296;SDS011;61524;50.938;11.396;2023-03-03T18:43:54;16.50;;;9.20;;
73296;SDS011;61524;50.938;11.396;2023-03-03T18:53:59;13.95;;;6.15;;
73296;SDS011;61524;50.938;11.396;2023-03-03T18:56:41;9.85;;;4.90;;
73296;SDS011;61524;50.938;11.396;2023-03-03T18:59:08;10.68;;;5.20;;
73296;SDS011;61524;50.938;11.396;2023-03-03T19:01:34;10.32;;;5.15;;
73296;SDS011;61524;50.938;11.396;2023-03-03T19:09:03;11.25;;;5.40;;
73296;SDS011;61524;50.938;11.396;2023-03-03T19:11:31;13.27;;;6.55;;
73296;SDS011;61524;50.938;11.396;2023-03-03T19:16:40;11.38;;;6.32;;
73296;SDS011;61524;50.938;11.396;2023-03-03T19:19:09;15.13;;;6.32;;
73296;SDS011;61524;50.938;11.396;2023-03-03T19:21:35;15.93;;;6.45;;
73296;SDS011;61524;50.938;11.396;2023-03-03T19:24:02;15.25;;;6.97;;
73296;SDS011;61524;50.938;11.396;2023-03-03T19:37:03;12.07;;;6.65;;
73296;SDS011;61524;50.938;11.396;2023-03-03T19:42:05;13.10;;;6.63;;
73296;SDS011;61524;50.938;11.396;2023-03-03T19:47:15;13.50;;;6.30;;
73296;SDS011;61524;50.938;11.396;2023-03-03T19:57:30;12.25;;;6.38;;
73296;SDS011;61524;50.938;11.396;2023-03-03T20:00:06;10.60;;;5.55;;
73296;SDS011;61524;50.938;11.396;2023-03-03T20:02:40;12.75;;;6.57;;
73296;SDS011;61524;50.938;11.396;2023-03-03T20:25:39;8.13;;;4.10;;
73296;SDS011;61524;50.938;11.396;2023-03-03T20:33:59;12.23;;;5.00;;
73296;SDS011;61524;50.938;11.396;2023-03-03T20:52:00;10.52;;;4.88;;
73296;SDS011;61524;50.938;11.396;2023-03-03T20:54:50;10.10;;;4.93;;
73296;SDS011;61524;50.938;11.396;2023-03-03T21:02:35;10.27;;;4.75;;
73296;SDS011;61524;50.938;11.396;2023-03-03T21:07:33;9.18;;;4.93;;
73296;SDS011;61524;50.938;11.396;2023-03-03T21:10:08;10.38;;;4.72;;
73296;SDS011;61524;50.938;11.396;2023-03-03T21:12:34;11.32;;;5.72;;
73296;SDS011;61524;50.938;11.396;2023-03-03T21:15:00;10.63;;;4.78;;
73296;SDS011;61524;50.938;11.396;2023-03-03T21:17:27;10.73;;;4.90;;
73296;SDS011;61524;50.938;11.396;2023-03-03T21:19:52;11.57;;;5.25;;
73296;SDS011;61524;50.938;11.396;2023-03-03T21:22:18;9.40;;;4.38;;
73296;SDS011;61524;50.938;11.396;2023-03-03T21:24:50;8.90;;;4.57;;
73296;SDS011;61524;50.938;11.396;2023-03-03T21:30:14;10.68;;;5.38;;
73296;SDS011;61524;50.938;11.396;2023-03-03T21:32:44;9.77;;;5.32;;
73296;SDS011;61524;50.938;11.396;2023-03-03T21:35:11;14.45;;;4.88;;
73296;SDS011;61524;50.938;11.396;2023-03-03T21:40:15;9.60;;;4.43;;